Appleton, Maine
Current Conditions -  °F | °C
As of 11:35 AM on Friday 24 Oct 2014 (Local Time) from KRKD Reporting Station
Overcast Overcast  
Wind Chill:   Ceiling: 1200
Heat Index:   Visibility: 10mi
Dew Point:   Wind: 9mph
Humidity: 82%   Direction: 360°N
Pressure: 29.65"   Gusts: 16mph
Location:  44.2596°N, 69.2573°W
Report Text: KRKD 241535Z AUTO 36008G14KT 320V020 10SM OVC012 09/06 A2965 RMK AO1
Loading
Personal Weather Stations






























Interactive Weather Map
Tropical Storm Tracking
New forecast layout! Learn more

10-Day Weather Forecast

Advertisements
Track Severe Weather on mobile